Red Bluff — WDC6944 — position and weather

sailwx.info

Track history (hours):
 
Tides and Currents Weather Stations Pressure Air Temp Water Temp Dewpoint Dewpoint Depression Visibility Wind Speed Wind Dir Waves Ship Positions

Red Bluff

Owner: Star Marine Inc, Bainbridge Island, WA. More information available from US FCC via Universal Licensing System and Coast Guard Vessel Documentation Center.

Last reported at 2017-Dec-14 18:31 UTC. Time now 2017-Dec-15 08:18 UTC.
Position N 47°37' W 122°31'.

; draft 10 m.

Type: Tug. MMSI: 367063680.

Date/timePositionNaut miles runAvg speedWind from/ knotsBaromVisibWave heightAir tempDewpointWater temp
2017-Dec-14 18:31N 47°37' W 122°31'0 0.0
2017-Dec-14 18:00N 47°37' W 122°31'0 0.0
2017-Dec-14 17:30N 47°37' W 122°31'0 0.0
2017-Dec-14 16:59N 47°37' W 122°31'1 2.8
2017-Dec-14 16:30N 47°37' W 122°29'5 9.1
2017-Dec-14 16:00N 47°41' W 122°26'5 4.5
2017-Dec-14 15:00N 47°39' W 122°20'3 5.4
2017-Dec-14 14:30N 47°38' W 122°16'5 9.5
2017-Dec-14 14:00N 47°33' W 122°15'3 0.3
2017-Dec-14 03:42N 47°30' W 122°12'2 6.6
2017-Dec-14 03:28N 47°31' W 122°14'3 7.0
2017-Dec-14 03:00N 47°35' W 122°15'4 6.7
2017-Dec-14 02:27N 47°38' W 122°16'2 4.5
2017-Dec-14 01:57N 47°39' W 122°19'2 4.0
2017-Dec-14 01:30N 47°39' W 122°22'1 2.8
2017-Dec-14 01:00N 47°40' W 122°24'2 3.2
2017-Dec-14 00:30N 47°40' W 122°26'4 7.0
2017-Dec-14 00:00N 47°37' W 122°27'4 7.1
2017-Dec-13 23:30N 47°33' W 122°28'4 7.3
2017-Dec-13 23:00N 47°30' W 122°30'4 7.2
2017-Dec-13 22:30N 47°27' W 122°31'4 7.0
2017-Dec-13 22:00N 47°23' W 122°32'3 6.9
2017-Dec-13 21:30N 47°20' W 122°33'3 6.3
2017-Dec-13 21:00N 47°17' W 122°33'3 5.9
2017-Dec-13 20:29N 47°14' W 122°35'3 5.6
2017-Dec-13 19:59N 47°11' W 122°37'3 2.2
2017-Dec-13 18:23N 47°08' W 122°39'1 1.3
2017-Dec-13 17:16N 47°10' W 122°39'1 3.2
2017-Dec-13 16:55N 47°11' W 122°38'3 6.0
2017-Dec-13 16:30N 47°12' W 122°36'4 6.1
2017-Dec-13 15:55N 47°16' W 122°33'3 5.5
2017-Dec-13 15:26N 47°18' W 122°33'3 5.5
2017-Dec-13 14:59N 47°21' W 122°33'3 5.6
2017-Dec-13 14:30N 47°23' W 122°32'3 5.7
2017-Dec-13 14:00N 47°26' W 122°31'3 5.4
2017-Dec-13 13:30N 47°29' W 122°30'3 6.1
2017-Dec-13 13:00N 47°32' W 122°29'3 6.5
2017-Dec-13 12:30N 47°35' W 122°28'3 6.6
2017-Dec-13 12:00N 47°38' W 122°28'3 5.3
2017-Dec-13 11:30N 47°41' W 122°27'2 3.2
2017-Dec-13 11:00N 47°40' W 122°25'2 3.0
2017-Dec-13 10:30N 47°40' W 122°23'3 5.1
2017-Dec-13 10:01N 47°39' W 122°19'3 5.8
2017-Dec-13 09:30N 47°37' W 122°16'4 8.2
2017-Dec-13 09:00N 47°33' W 122°15'3 0.4
2017-Dec-13 01:41N 47°30' W 122°12'3 6.5
2017-Dec-13 01:14N 47°33' W 122°15'2 9.5
2017-Dec-13 01:00N 47°35' W 122°15'4 8.3
2017-Dec-13 00:30N 47°39' W 122°17'3 5.5
2017-Dec-13 00:00N 47°39' W 122°21'2 4.5
2017-Dec-12 23:31N 47°40' W 122°24'1 2.1
2017-Dec-12 23:01N 47°41' W 122°25'4 8.8
2017-Dec-12 22:30N 47°37' W 122°29'2 3.2
2017-Dec-12 22:00N 47°37' W 122°31'0 0.0
2017-Dec-12 21:30N 47°37' W 122°31'0 0.0
2017-Dec-12 21:00N 47°37' W 122°31'0 0.0
2017-Dec-12 20:29N 47°37' W 122°31'0 0.0
2017-Dec-12 20:00N 47°37' W 122°31'0 0.0
2017-Dec-12 19:30N 47°37' W 122°31'0 0.0
2017-Dec-12 19:01N 47°37' W 122°31'0 0.0
2017-Dec-12 18:30N 47°37' W 122°31'0 0.0
2017-Dec-12 18:00N 47°37' W 122°31'0 0.0
2017-Dec-12 17:28N 47°37' W 122°31'0 0.0
2017-Dec-11 21:24N 47°37' W 122°31'0 0.0
2017-Dec-11 21:00N 47°37' W 122°31'0 0.0
2017-Dec-11 20:30N 47°37' W 122°31'0 0.0
2017-Dec-11 20:00N 47°37' W 122°31'0 0.0
2017-Dec-11 19:30N 47°37' W 122°31'0 0.0
2017-Dec-11 19:00N 47°37' W 122°31'0 0.0
2017-Dec-11 18:30N 47°37' W 122°31'0 0.0
2017-Dec-11 18:00N 47°37' W 122°31'0 0.0
2017-Dec-11 17:30N 47°37' W 122°31'1 2.8
2017-Dec-11 17:00N 47°36' W 122°30'4 8.6
2017-Dec-11 16:30N 47°33' W 122°26'2 4.3
2017-Dec-11 16:00N 47°31' W 122°24'0 0.3
2017-Dec-11 15:30N 47°31' W 122°24'0 0.0
2017-Dec-11 15:00N 47°31' W 122°24'0 0.3
2017-Dec-11 14:30N 47°31' W 122°24'0 0.6
2017-Dec-11 14:00N 47°31' W 122°24'1 1.3
2017-Dec-11 13:30N 47°30' W 122°24'1 2.7
2017-Dec-11 13:00N 47°29' W 122°24'1 2.8
2017-Dec-11 12:30N 47°27' W 122°24'1 3.0
2017-Dec-11 12:00N 47°26' W 122°23'1 2.9
2017-Dec-11 11:30N 47°25' W 122°22'1 2.9
2017-Dec-11 11:00N 47°23' W 122°21'1 2.7
2017-Dec-11 10:30N 47°22' W 122°22'2 3.2
2017-Dec-11 10:00N 47°21' W 122°23'2 3.1
2017-Dec-11 09:30N 47°20' W 122°25'2 3.2
2017-Dec-11 09:00N 47°19' W 122°27'1 2.8
2017-Dec-11 08:30N 47°18' W 122°27'1 2.4
2017-Dec-11 08:00N 47°17' W 122°25'0 0.0
2017-Dec-11 07:00N 47°17' W 122°25'4 7.1
2017-Dec-11 06:30N 47°20' W 122°27'4 9.0
2017-Dec-11 06:00N 47°23' W 122°22'5 9.2
2017-Dec-11 05:30N 47°28' W 122°25'510.2
2017-Dec-11 05:01N 47°33' W 122°28'510.2
2017-Dec-11 04:30N 47°37' W 122°30'1 1.2
2017-Dec-11 04:00N 47°37' W 122°31'0 0.0
2017-Dec-11 03:30N 47°37' W 122°31'0 0.0
2017-Dec-11 03:00N 47°37' W 122°31'0 0.0
2017-Dec-11 02:30N 47°37' W 122°31'0 0.0
2017-Dec-11 02:00N 47°37' W 122°31'0 0.0
2017-Dec-11 01:30N 47°37' W 122°31'0 0.0
2017-Dec-11 01:00N 47°37' W 122°31'0 0.0
2017-Dec-11 00:30N 47°37' W 122°31'0 0.0
2017-Dec-11 00:00N 47°37' W 122°31'0 0.0
2017-Dec-10 23:30N 47°37' W 122°31'0 0.0
2017-Dec-10 23:00N 47°37' W 122°31'  
2017-Dec-08 01:37N 47°37' W 122°31'0 0.0
2017-Dec-08 01:30N 47°37' W 122°31'0 0.0
2017-Dec-08 01:00N 47°37' W 122°31'0 0.0
2017-Dec-08 00:29N 47°37' W 122°31'0 0.0
2017-Dec-08 00:00N 47°37' W 122°31'0 0.0
2017-Dec-07 23:30N 47°37' W 122°31'0 0.0
2017-Dec-07 23:00N 47°37' W 122°31'0 0.0
2017-Dec-07 22:29N 47°37' W 122°31'0 0.0
2017-Dec-07 22:00N 47°37' W 122°31'0 0.0
2017-Dec-07 00:59N 47°37' W 122°31'0 0.0
2017-Dec-07 00:30N 47°37' W 122°31'0 0.0
2017-Dec-07 00:00N 47°37' W 122°31'0 0.0
2017-Dec-06 23:30N 47°37' W 122°31'0 0.0
2017-Dec-06 23:00N 47°37' W 122°31'0 0.0
2017-Dec-06 22:31N 47°37' W 122°31'0 0.0
2017-Dec-06 22:01N 47°37' W 122°31'0 0.0
2017-Dec-06 21:31N 47°37' W 122°31'0 0.0
2017-Dec-06 21:00N 47°37' W 122°31'  
Track history (hours):
 
Tides and Currents Weather Stations Pressure Air Temp Water Temp Dewpoint Dewpoint Depression Visibility Wind Speed Wind Dir Waves Ship Positions

Red Bluff

Owner: Star Marine Inc, Bainbridge Island, WA. More information available from US FCC via Universal Licensing System and Coast Guard Vessel Documentation Center.

Last reported at 2017-Dec-14 18:31 UTC. Time now 2017-Dec-15 08:18 UTC.
Position N 47°37' W 122°31'.

; draft 10 m.

Type: Tug. MMSI: 367063680.

Date/timePositionNaut miles runAvg speedWind from/ knotsBaromVisibWave heightAir tempDewpointWater temp
2017-Dec-14 18:31N 47°37' W 122°31'0 0.0
2017-Dec-14 18:00N 47°37' W 122°31'0 0.0
2017-Dec-14 17:30N 47°37' W 122°31'0 0.0
2017-Dec-14 16:59N 47°37' W 122°31'1 2.8
2017-Dec-14 16:30N 47°37' W 122°29'5 9.1
2017-Dec-14 16:00N 47°41' W 122°26'5 4.5
2017-Dec-14 15:00N 47°39' W 122°20'3 5.4
2017-Dec-14 14:30N 47°38' W 122°16'5 9.5
2017-Dec-14 14:00N 47°33' W 122°15'3 0.3
2017-Dec-14 03:42N 47°30' W 122°12'2 6.6
2017-Dec-14 03:28N 47°31' W 122°14'3 7.0
2017-Dec-14 03:00N 47°35' W 122°15'4 6.7
2017-Dec-14 02:27N 47°38' W 122°16'2 4.5
2017-Dec-14 01:57N 47°39' W 122°19'2 4.0
2017-Dec-14 01:30N 47°39' W 122°22'1 2.8
2017-Dec-14 01:00N 47°40' W 122°24'2 3.2
2017-Dec-14 00:30N 47°40' W 122°26'4 7.0
2017-Dec-14 00:00N 47°37' W 122°27'4 7.1
2017-Dec-13 23:30N 47°33' W 122°28'4 7.3
2017-Dec-13 23:00N 47°30' W 122°30'4 7.2
2017-Dec-13 22:30N 47°27' W 122°31'4 7.0
2017-Dec-13 22:00N 47°23' W 122°32'3 6.9
2017-Dec-13 21:30N 47°20' W 122°33'3 6.3
2017-Dec-13 21:00N 47°17' W 122°33'3 5.9
2017-Dec-13 20:29N 47°14' W 122°35'3 5.6
2017-Dec-13 19:59N 47°11' W 122°37'3 2.2
2017-Dec-13 18:23N 47°08' W 122°39'1 1.3
2017-Dec-13 17:16N 47°10' W 122°39'1 3.2
2017-Dec-13 16:55N 47°11' W 122°38'3 6.0
2017-Dec-13 16:30N 47°12' W 122°36'4 6.1
2017-Dec-13 15:55N 47°16' W 122°33'3 5.5
2017-Dec-13 15:26N 47°18' W 122°33'3 5.5
2017-Dec-13 14:59N 47°21' W 122°33'3 5.6
2017-Dec-13 14:30N 47°23' W 122°32'3 5.7
2017-Dec-13 14:00N 47°26' W 122°31'3 5.4
2017-Dec-13 13:30N 47°29' W 122°30'3 6.1
2017-Dec-13 13:00N 47°32' W 122°29'3 6.5
2017-Dec-13 12:30N 47°35' W 122°28'3 6.6
2017-Dec-13 12:00N 47°38' W 122°28'3 5.3
2017-Dec-13 11:30N 47°41' W 122°27'2 3.2
2017-Dec-13 11:00N 47°40' W 122°25'2 3.0
2017-Dec-13 10:30N 47°40' W 122°23'3 5.1
2017-Dec-13 10:01N 47°39' W 122°19'3 5.8
2017-Dec-13 09:30N 47°37' W 122°16'4 8.2
2017-Dec-13 09:00N 47°33' W 122°15'3 0.4
2017-Dec-13 01:41N 47°30' W 122°12'3 6.5
2017-Dec-13 01:14N 47°33' W 122°15'2 9.5
2017-Dec-13 01:00N 47°35' W 122°15'4 8.3
2017-Dec-13 00:30N 47°39' W 122°17'3 5.5
2017-Dec-13 00:00N 47°39' W 122°21'2 4.5
2017-Dec-12 23:31N 47°40' W 122°24'1 2.1
2017-Dec-12 23:01N 47°41' W 122°25'4 8.8
2017-Dec-12 22:30N 47°37' W 122°29'2 3.2
2017-Dec-12 22:00N 47°37' W 122°31'0 0.0
2017-Dec-12 21:30N 47°37' W 122°31'0 0.0
2017-Dec-12 21:00N 47°37' W 122°31'0 0.0
2017-Dec-12 20:29N 47°37' W 122°31'0 0.0
2017-Dec-12 20:00N 47°37' W 122°31'0 0.0
2017-Dec-12 19:30N 47°37' W 122°31'0 0.0
2017-Dec-12 19:01N 47°37' W 122°31'0 0.0
2017-Dec-12 18:30N 47°37' W 122°31'0 0.0
2017-Dec-12 18:00N 47°37' W 122°31'0 0.0
2017-Dec-12 17:28N 47°37' W 122°31'0 0.0
2017-Dec-11 21:24N 47°37' W 122°31'0 0.0
2017-Dec-11 21:00N 47°37' W 122°31'0 0.0
2017-Dec-11 20:30N 47°37' W 122°31'0 0.0
2017-Dec-11 20:00N 47°37' W 122°31'0 0.0
2017-Dec-11 19:30N 47°37' W 122°31'0 0.0
2017-Dec-11 19:00N 47°37' W 122°31'0 0.0
2017-Dec-11 18:30N 47°37' W 122°31'0 0.0
2017-Dec-11 18:00N 47°37' W 122°31'0 0.0
2017-Dec-11 17:30N 47°37' W 122°31'1 2.8
2017-Dec-11 17:00N 47°36' W 122°30'4 8.6
2017-Dec-11 16:30N 47°33' W 122°26'2 4.3
2017-Dec-11 16:00N 47°31' W 122°24'0 0.3
2017-Dec-11 15:30N 47°31' W 122°24'0 0.0
2017-Dec-11 15:00N 47°31' W 122°24'0 0.3
2017-Dec-11 14:30N 47°31' W 122°24'0 0.6
2017-Dec-11 14:00N 47°31' W 122°24'1 1.3
2017-Dec-11 13:30N 47°30' W 122°24'1 2.7
2017-Dec-11 13:00N 47°29' W 122°24'1 2.8
2017-Dec-11 12:30N 47°27' W 122°24'1 3.0
2017-Dec-11 12:00N 47°26' W 122°23'1 2.9
2017-Dec-11 11:30N 47°25' W 122°22'1 2.9
2017-Dec-11 11:00N 47°23' W 122°21'1 2.7
2017-Dec-11 10:30N 47°22' W 122°22'2 3.2
2017-Dec-11 10:00N 47°21' W 122°23'2 3.1
2017-Dec-11 09:30N 47°20' W 122°25'2 3.2
2017-Dec-11 09:00N 47°19' W 122°27'1 2.8
2017-Dec-11 08:30N 47°18' W 122°27'1 2.4
2017-Dec-11 08:00N 47°17' W 122°25'0 0.0
2017-Dec-11 07:00N 47°17' W 122°25'4 7.1
2017-Dec-11 06:30N 47°20' W 122°27'4 9.0
2017-Dec-11 06:00N 47°23' W 122°22'5 9.2
2017-Dec-11 05:30N 47°28' W 122°25'510.2
2017-Dec-11 05:01N 47°33' W 122°28'510.2
2017-Dec-11 04:30N 47°37' W 122°30'1 1.2
2017-Dec-11 04:00N 47°37' W 122°31'0 0.0
2017-Dec-11 03:30N 47°37' W 122°31'0 0.0
2017-Dec-11 03:00N 47°37' W 122°31'0 0.0
2017-Dec-11 02:30N 47°37' W 122°31'0 0.0
2017-Dec-11 02:00N 47°37' W 122°31'0 0.0
2017-Dec-11 01:30N 47°37' W 122°31'0 0.0
2017-Dec-11 01:00N 47°37' W 122°31'0 0.0
2017-Dec-11 00:30N 47°37' W 122°31'0 0.0
2017-Dec-11 00:00N 47°37' W 122°31'0 0.0
2017-Dec-10 23:30N 47°37' W 122°31'0 0.0
2017-Dec-10 23:00N 47°37' W 122°31'  
2017-Dec-08 01:37N 47°37' W 122°31'0 0.0
2017-Dec-08 01:30N 47°37' W 122°31'0 0.0
2017-Dec-08 01:00N 47°37' W 122°31'0 0.0
2017-Dec-08 00:29N 47°37' W 122°31'0 0.0
2017-Dec-08 00:00N 47°37' W 122°31'0 0.0
2017-Dec-07 23:30N 47°37' W 122°31'0 0.0
2017-Dec-07 23:00N 47°37' W 122°31'0 0.0
2017-Dec-07 22:29N 47°37' W 122°31'0 0.0
2017-Dec-07 22:00N 47°37' W 122°31'0 0.0
2017-Dec-07 00:59N 47°37' W 122°31'0 0.0
2017-Dec-07 00:30N 47°37' W 122°31'0 0.0
2017-Dec-07 00:00N 47°37' W 122°31'0 0.0
2017-Dec-06 23:30N 47°37' W 122°31'0 0.0
2017-Dec-06 23:00N 47°37' W 122°31'0 0.0
2017-Dec-06 22:31N 47°37' W 122°31'0 0.0
2017-Dec-06 22:01N 47°37' W 122°31'0 0.0
2017-Dec-06 21:31N 47°37' W 122°31'0 0.0
2017-Dec-06 21:00N 47°37' W 122°31'  

Dump ship's entire track history